sensor_id;sensor_type;location;lat;lon;timestamp;temperature;humidity
22706;DHT22;11520;51.198;4.468;2023-04-24T00:00:05;10.80;99.90
22706;DHT22;11520;51.198;4.468;2023-04-24T00:02:35;10.80;99.90
22706;DHT22;11520;51.198;4.468;2023-04-24T00:05:07;10.90;99.90
22706;DHT22;11520;51.198;4.468;2023-04-24T00:07:33;10.80;99.90
22706;DHT22;11520;51.198;4.468;2023-04-24T00:09:59;10.80;99.90
22706;DHT22;11520;51.198;4.468;2023-04-24T00:12:25;10.90;99.90
22706;DHT22;11520;51.198;4.468;2023-04-24T00:14:51;10.80;99.90
22706;DHT22;11520;51.198;4.468;2023-04-24T00:17:17;10.80;99.90
22706;DHT22;11520;51.198;4.468;2023-04-24T00:19:45;10.70;99.90
22706;DHT22;11520;51.198;4.468;2023-04-24T00:22:11;10.80;99.90
22706;DHT22;11520;51.198;4.468;2023-04-24T00:24:39;10.80;99.90
22706;DHT22;11520;51.198;4.468;2023-04-24T00:27:04;10.80;99.90
22706;DHT22;11520;51.198;4.468;2023-04-24T00:29:30;10.70;99.90
22706;DHT22;11520;51.198;4.468;2023-04-24T00:31:56;10.70;99.90
22706;DHT22;11520;51.198;4.468;2023-04-24T00:34:22;10.80;99.90
22706;DHT22;11520;51.198;4.468;2023-04-24T00:36:47;10.80;99.90
22706;DHT22;11520;51.198;4.468;2023-04-24T00:39:15;10.70;99.90
22706;DHT22;11520;51.198;4.468;2023-04-24T00:41:42;10.70;99.90
22706;DHT22;11520;51.198;4.468;2023-04-24T00:44:07;10.70;99.90
22706;DHT22;11520;51.198;4.468;2023-04-24T00:46:33;10.70;99.90
22706;DHT22;11520;51.198;4.468;2023-04-24T00:48:59;10.70;99.90
22706;DHT22;11520;51.198;4.468;2023-04-24T00:51:24;10.70;99.90
22706;DHT22;11520;51.198;4.468;2023-04-24T00:53:50;10.70;99.90
22706;DHT22;11520;51.198;4.468;2023-04-24T00:56:17;10.70;99.90
22706;DHT22;11520;51.198;4.468;2023-04-24T00:58:44;10.60;99.90
22706;DHT22;11520;51.198;4.468;2023-04-24T01:01:10;10.60;99.90
22706;DHT22;11520;51.198;4.468;2023-04-24T01:03:37;10.70;99.90
22706;DHT22;11520;51.198;4.468;2023-04-24T01:06:04;10.60;99.90
22706;DHT22;11520;51.198;4.468;2023-04-24T01:08:30;10.60;99.90
22706;DHT22;11520;51.198;4.468;2023-04-24T01:10:57;10.60;99.90
22706;DHT22;11520;51.198;4.468;2023-04-24T01:13:23;10.50;99.90
22706;DHT22;11520;51.198;4.468;2023-04-24T01:15:49;10.50;99.90
22706;DHT22;11520;51.198;4.468;2023-04-24T01:18:15;10.60;99.90
22706;DHT22;11520;51.198;4.468;2023-04-24T01:20:43;10.50;99.90
22706;DHT22;11520;51.198;4.468;2023-04-24T01:23:10;10.60;99.90
22706;DHT22;11520;51.198;4.468;2023-04-24T01:25:37;10.60;99.90
22706;DHT22;11520;51.198;4.468;2023-04-24T01:28:03;10.50;99.90
22706;DHT22;11520;51.198;4.468;2023-04-24T01:30:29;10.50;99.90
22706;DHT22;11520;51.198;4.468;2023-04-24T01:32:55;10.60;99.90
22706;DHT22;11520;51.198;4.468;2023-04-24T01:35:21;10.50;99.90
22706;DHT22;11520;51.198;4.468;2023-04-24T01:37:47;10.60;99.90
22706;DHT22;11520;51.198;4.468;2023-04-24T01:40:12;10.60;99.90
22706;DHT22;11520;51.198;4.468;2023-04-24T01:42:38;10.60;99.90
22706;DHT22;11520;51.198;4.468;2023-04-24T01:45:04;10.60;99.90
22706;DHT22;11520;51.198;4.468;2023-04-24T01:47:31;10.50;99.90
22706;DHT22;11520;51.198;4.468;2023-04-24T01:49:58;10.50;99.90
22706;DHT22;11520;51.198;4.468;2023-04-24T01:52:24;10.60;99.90
22706;DHT22;11520;51.198;4.468;2023-04-24T01:54:50;10.50;99.90
22706;DHT22;11520;51.198;4.468;2023-04-24T01:57:16;10.50;99.90
22706;DHT22;11520;51.198;4.468;2023-04-24T01:59:42;10.50;99.90
22706;DHT22;11520;51.198;4.468;2023-04-24T02:02:07;10.50;99.90
22706;DHT22;11520;51.198;4.468;2023-04-24T02:04:33;10.60;99.90
22706;DHT22;11520;51.198;4.468;2023-04-24T02:06:59;10.50;99.90
22706;DHT22;11520;51.198;4.468;2023-04-24T02:09:24;10.50;99.90
22706;DHT22;11520;51.198;4.468;2023-04-24T02:11:50;10.50;99.90
22706;DHT22;11520;51.198;4.468;2023-04-24T02:14:16;10.50;99.90
22706;DHT22;11520;51.198;4.468;2023-04-24T02:16:42;10.50;99.90
22706;DHT22;11520;51.198;4.468;2023-04-24T02:19:09;10.50;99.90
22706;DHT22;11520;51.198;4.468;2023-04-24T02:21:34;10.50;99.90
22706;DHT22;11520;51.198;4.468;2023-04-24T02:24:00;10.50;99.90
22706;DHT22;11520;51.198;4.468;2023-04-24T02:26:26;10.50;99.90
22706;DHT22;11520;51.198;4.468;2023-04-24T02:28:51;10.40;99.90
22706;DHT22;11520;51.198;4.468;2023-04-24T02:31:17;10.40;99.90
22706;DHT22;11520;51.198;4.468;2023-04-24T02:33:43;10.40;99.90
22706;DHT22;11520;51.198;4.468;2023-04-24T02:36:08;10.30;99.90
22706;DHT22;11520;51.198;4.468;2023-04-24T02:38:35;10.30;99.90
22706;DHT22;11520;51.198;4.468;2023-04-24T02:41:01;10.20;99.90
22706;DHT22;11520;51.198;4.468;2023-04-24T02:43:28;10.20;99.90
22706;DHT22;11520;51.198;4.468;2023-04-24T02:45:53;10.20;99.90
22706;DHT22;11520;51.198;4.468;2023-04-24T02:48:19;10.20;99.90
22706;DHT22;11520;51.198;4.468;2023-04-24T02:50:46;10.20;99.90
22706;DHT22;11520;51.198;4.468;2023-04-24T02:53:11;10.30;99.90
22706;DHT22;11520;51.198;4.468;2023-04-24T02:55:37;10.30;99.90
22706;DHT22;11520;51.198;4.468;2023-04-24T02:58:03;10.30;99.90
22706;DHT22;11520;51.198;4.468;2023-04-24T03:00:28;10.30;99.90
22706;DHT22;11520;51.198;4.468;2023-04-24T03:02:55;10.30;99.90
22706;DHT22;11520;51.198;4.468;2023-04-24T03:05:21;10.30;99.90
22706;DHT22;11520;51.198;4.468;2023-04-24T03:07:47;10.30;99.90
22706;DHT22;11520;51.198;4.468;2023-04-24T03:10:13;10.30;99.90
22706;DHT22;11520;51.198;4.468;2023-04-24T03:12:39;10.20;99.90
22706;DHT22;11520;51.198;4.468;2023-04-24T03:15:05;10.20;99.90
22706;DHT22;11520;51.198;4.468;2023-04-24T03:17:31;10.20;99.90
22706;DHT22;11520;51.198;4.468;2023-04-24T03:19:56;10.10;99.90
22706;DHT22;11520;51.198;4.468;2023-04-24T03:22:22;10.10;99.90
22706;DHT22;11520;51.198;4.468;2023-04-24T03:24:48;10.20;99.90
22706;DHT22;11520;51.198;4.468;2023-04-24T03:27:13;10.10;99.90
22706;DHT22;11520;51.198;4.468;2023-04-24T03:29:39;10.20;99.90
22706;DHT22;11520;51.198;4.468;2023-04-24T03:32:05;10.20;99.90
22706;DHT22;11520;51.198;4.468;2023-04-24T03:34:30;10.20;99.90
22706;DHT22;11520;51.198;4.468;2023-04-24T03:36:56;10.20;99.90
22706;DHT22;11520;51.198;4.468;2023-04-24T03:39:21;10.00;99.90
22706;DHT22;11520;51.198;4.468;2023-04-24T03:41:47;10.00;99.90
22706;DHT22;11520;51.198;4.468;2023-04-24T03:44:13;10.10;99.90
22706;DHT22;11520;51.198;4.468;2023-04-24T03:46:38;10.10;99.90
22706;DHT22;11520;51.198;4.468;2023-04-24T03:49:04;10.10;99.90
22706;DHT22;11520;51.198;4.468;2023-04-24T03:51:29;10.10;99.90
22706;DHT22;11520;51.198;4.468;2023-04-24T03:53:56;10.10;99.90
22706;DHT22;11520;51.198;4.468;2023-04-24T03:56:22;10.10;99.90
22706;DHT22;11520;51.198;4.468;2023-04-24T03:58:48;10.00;99.90
22706;DHT22;11520;51.198;4.468;2023-04-24T04:01:13;9.90;99.90
22706;DHT22;11520;51.198;4.468;2023-04-24T04:03:41;9.90;99.90
22706;DHT22;11520;51.198;4.468;2023-04-24T04:06:07;9.90;99.90
22706;DHT22;11520;51.198;4.468;2023-04-24T04:08:32;9.90;99.90
22706;DHT22;11520;51.198;4.468;2023-04-24T04:10:58;9.90;99.90
22706;DHT22;11520;51.198;4.468;2023-04-24T04:13:24;9.80;99.90
22706;DHT22;11520;51.198;4.468;2023-04-24T04:15:49;9.80;99.90
22706;DHT22;11520;51.198;4.468;2023-04-24T04:18:15;9.80;99.90
22706;DHT22;11520;51.198;4.468;2023-04-24T04:20:41;9.80;99.90
22706;DHT22;11520;51.198;4.468;2023-04-24T04:23:07;9.80;99.90
22706;DHT22;11520;51.198;4.468;2023-04-24T04:25:32;9.80;99.90
22706;DHT22;11520;51.198;4.468;2023-04-24T04:27:58;9.80;99.90
22706;DHT22;11520;51.198;4.468;2023-04-24T04:30:25;9.90;99.90
22706;DHT22;11520;51.198;4.468;2023-04-24T04:32:51;9.90;99.90
22706;DHT22;11520;51.198;4.468;2023-04-24T04:35:17;9.90;99.90
22706;DHT22;11520;51.198;4.468;2023-04-24T04:37:42;9.80;99.90
22706;DHT22;11520;51.198;4.468;2023-04-24T04:40:08;9.80;99.90
22706;DHT22;11520;51.198;4.468;2023-04-24T04:42:37;9.80;99.90
22706;DHT22;11520;51.198;4.468;2023-04-24T04:45:09;9.80;99.90
22706;DHT22;11520;51.198;4.468;2023-04-24T04:47:36;9.80;99.90
22706;DHT22;11520;51.198;4.468;2023-04-24T04:50:02;9.80;99.90
22706;DHT22;11520;51.198;4.468;2023-04-24T04:52:29;9.90;99.90
22706;DHT22;11520;51.198;4.468;2023-04-24T04:54:55;9.80;99.90
22706;DHT22;11520;51.198;4.468;2023-04-24T04:57:20;9.70;99.90
22706;DHT22;11520;51.198;4.468;2023-04-24T04:59:46;9.60;99.90
22706;DHT22;11520;51.198;4.468;2023-04-24T05:02:12;9.60;99.90
22706;DHT22;11520;51.198;4.468;2023-04-24T05:04:38;9.60;99.90
22706;DHT22;11520;51.198;4.468;2023-04-24T05:07:03;9.70;99.90
22706;DHT22;11520;51.198;4.468;2023-04-24T05:09:29;9.70;99.90
22706;DHT22;11520;51.198;4.468;2023-04-24T05:11:55;9.70;99.90
22706;DHT22;11520;51.198;4.468;2023-04-24T05:14:21;9.70;99.90
22706;DHT22;11520;51.198;4.468;2023-04-24T05:16:47;9.60;99.90
22706;DHT22;11520;51.198;4.468;2023-04-24T05:19:13;9.60;99.90
22706;DHT22;11520;51.198;4.468;2023-04-24T05:21:39;9.60;99.90
22706;DHT22;11520;51.198;4.468;2023-04-24T05:24:06;9.60;99.90
22706;DHT22;11520;51.198;4.468;2023-04-24T05:26:31;9.60;99.90
22706;DHT22;11520;51.198;4.468;2023-04-24T05:28:57;9.60;99.90
22706;DHT22;11520;51.198;4.468;2023-04-24T05:31:23;9.60;99.90
22706;DHT22;11520;51.198;4.468;2023-04-24T05:33:49;9.60;99.90
22706;DHT22;11520;51.198;4.468;2023-04-24T05:36:14;9.50;99.90
22706;DHT22;11520;51.198;4.468;2023-04-24T05:38:40;9.50;99.90
22706;DHT22;11520;51.198;4.468;2023-04-24T05:41:06;9.50;99.90
22706;DHT22;11520;51.198;4.468;2023-04-24T05:43:32;9.50;99.90
22706;DHT22;11520;51.198;4.468;2023-04-24T05:45:57;9.50;99.90
22706;DHT22;11520;51.198;4.468;2023-04-24T05:48:23;9.50;99.90
22706;DHT22;11520;51.198;4.468;2023-04-24T05:50:49;9.40;99.90
22706;DHT22;11520;51.198;4.468;2023-04-24T05:53:14;9.30;99.90
22706;DHT22;11520;51.198;4.468;2023-04-24T05:55:41;9.30;99.90
22706;DHT22;11520;51.198;4.468;2023-04-24T05:58:06;9.40;99.90
22706;DHT22;11520;51.198;4.468;2023-04-24T06:00:32;9.50;99.90
22706;DHT22;11520;51.198;4.468;2023-04-24T06:02:59;9.50;99.90
22706;DHT22;11520;51.198;4.468;2023-04-24T06:05:25;9.50;99.90
22706;DHT22;11520;51.198;4.468;2023-04-24T06:07:51;9.50;99.90
22706;DHT22;11520;51.198;4.468;2023-04-24T06:10:17;9.60;99.90
22706;DHT22;11520;51.198;4.468;2023-04-24T06:12:42;9.60;99.90
22706;DHT22;11520;51.198;4.468;2023-04-24T06:15:08;9.70;99.90
22706;DHT22;11520;51.198;4.468;2023-04-24T06:17:34;9.70;99.90
22706;DHT22;11520;51.198;4.468;2023-04-24T06:20:00;9.70;99.90
22706;DHT22;11520;51.198;4.468;2023-04-24T06:22:25;9.70;99.90
22706;DHT22;11520;51.198;4.468;2023-04-24T06:24:51;9.80;99.90
22706;DHT22;11520;51.198;4.468;2023-04-24T06:27:17;9.90;99.90
22706;DHT22;11520;51.198;4.468;2023-04-24T06:29:42;10.10;99.90
22706;DHT22;11520;51.198;4.468;2023-04-24T06:32:08;10.20;99.90
22706;DHT22;11520;51.198;4.468;2023-04-24T06:34:33;10.10;99.90
22706;DHT22;11520;51.198;4.468;2023-04-24T06:39:34;10.10;99.90
22706;DHT22;11520;51.198;4.468;2023-04-24T06:42:00;10.10;99.90
22706;DHT22;11520;51.198;4.468;2023-04-24T06:44:26;10.00;99.90
22706;DHT22;11520;51.198;4.468;2023-04-24T06:46:52;10.20;99.90
22706;DHT22;11520;51.198;4.468;2023-04-24T06:49:17;10.20;99.90
22706;DHT22;11520;51.198;4.468;2023-04-24T06:51:43;10.20;99.90
22706;DHT22;11520;51.198;4.468;2023-04-24T06:54:08;10.20;99.90
22706;DHT22;11520;51.198;4.468;2023-04-24T06:56:35;10.10;99.90
22706;DHT22;11520;51.198;4.468;2023-04-24T06:59:01;10.00;99.90
22706;DHT22;11520;51.198;4.468;2023-04-24T07:01:27;10.00;99.90
22706;DHT22;11520;51.198;4.468;2023-04-24T07:03:52;10.10;99.90
22706;DHT22;11520;51.198;4.468;2023-04-24T07:06:18;10.10;99.90
22706;DHT22;11520;51.198;4.468;2023-04-24T07:08:46;10.20;99.90
22706;DHT22;11520;51.198;4.468;2023-04-24T07:11:12;10.20;99.90
22706;DHT22;11520;51.198;4.468;2023-04-24T07:13:38;10.10;99.90
22706;DHT22;11520;51.198;4.468;2023-04-24T07:16:07;10.10;99.90
22706;DHT22;11520;51.198;4.468;2023-04-24T07:18:33;10.10;99.90
22706;DHT22;11520;51.198;4.468;2023-04-24T07:20:59;10.10;99.90
22706;DHT22;11520;51.198;4.468;2023-04-24T07:23:24;10.20;99.90
22706;DHT22;11520;51.198;4.468;2023-04-24T07:25:50;10.30;99.90
22706;DHT22;11520;51.198;4.468;2023-04-24T07:28:16;10.40;99.90
22706;DHT22;11520;51.198;4.468;2023-04-24T07:30:43;10.40;99.90
22706;DHT22;11520;51.198;4.468;2023-04-24T07:33:09;10.50;99.90
22706;DHT22;11520;51.198;4.468;2023-04-24T07:35:36;10.50;99.90
22706;DHT22;11520;51.198;4.468;2023-04-24T07:38:03;10.80;99.90
22706;DHT22;11520;51.198;4.468;2023-04-24T07:40:29;10.90;99.90
22706;DHT22;11520;51.198;4.468;2023-04-24T07:42:54;11.10;99.90
22706;DHT22;11520;51.198;4.468;2023-04-24T07:45:20;11.10;99.90
22706;DHT22;11520;51.198;4.468;2023-04-24T07:47:46;11.20;99.90
22706;DHT22;11520;51.198;4.468;2023-04-24T07:50:12;11.50;99.90
22706;DHT22;11520;51.198;4.468;2023-04-24T07:52:38;12.00;99.90
22706;DHT22;11520;51.198;4.468;2023-04-24T07:55:04;12.30;99.90
22706;DHT22;11520;51.198;4.468;2023-04-24T07:57:30;12.40;99.90
22706;DHT22;11520;51.198;4.468;2023-04-24T07:59:56;13.00;99.90
22706;DHT22;11520;51.198;4.468;2023-04-24T08:02:21;13.50;99.90
22706;DHT22;11520;51.198;4.468;2023-04-24T08:04:54;14.20;99.90
22706;DHT22;11520;51.198;4.468;2023-04-24T08:07:20;14.40;99.90
22706;DHT22;11520;51.198;4.468;2023-04-24T08:09:46;14.50;99.90
22706;DHT22;11520;51.198;4.468;2023-04-24T08:12:12;14.50;99.90
22706;DHT22;11520;51.198;4.468;2023-04-24T08:14:37;14.50;99.90
22706;DHT22;11520;51.198;4.468;2023-04-24T08:17:03;13.60;99.90
22706;DHT22;11520;51.198;4.468;2023-04-24T08:19:29;12.80;99.90
22706;DHT22;11520;51.198;4.468;2023-04-24T08:21:55;12.50;99.90
22706;DHT22;11520;51.198;4.468;2023-04-24T08:24:21;12.50;99.90
22706;DHT22;11520;51.198;4.468;2023-04-24T08:26:46;12.40;99.90
22706;DHT22;11520;51.198;4.468;2023-04-24T08:29:15;12.20;99.90
22706;DHT22;11520;51.198;4.468;2023-04-24T08:31:41;12.20;99.90
22706;DHT22;11520;51.198;4.468;2023-04-24T08:34:07;12.00;99.90
22706;DHT22;11520;51.198;4.468;2023-04-24T08:36:32;12.10;99.90
22706;DHT22;11520;51.198;4.468;2023-04-24T08:38:58;12.10;99.90
22706;DHT22;11520;51.198;4.468;2023-04-24T08:41:24;11.90;99.90
22706;DHT22;11520;51.198;4.468;2023-04-24T08:43:52;11.80;99.90
22706;DHT22;11520;51.198;4.468;2023-04-24T08:46:19;11.60;99.90
22706;DHT22;11520;51.198;4.468;2023-04-24T08:48:45;11.60;99.90
22706;DHT22;11520;51.198;4.468;2023-04-24T08:51:11;11.90;99.90
22706;DHT22;11520;51.198;4.468;2023-04-24T08:53:37;12.00;99.90
22706;DHT22;11520;51.198;4.468;2023-04-24T08:56:03;12.80;99.90
22706;DHT22;11520;51.198;4.468;2023-04-24T08:58:29;14.00;99.90
22706;DHT22;11520;51.198;4.468;2023-04-24T09:00:56;14.30;99.90
22706;DHT22;11520;51.198;4.468;2023-04-24T09:03:22;14.00;99.90
22706;DHT22;11520;51.198;4.468;2023-04-24T09:05:49;14.00;99.90
22706;DHT22;11520;51.198;4.468;2023-04-24T09:08:17;13.50;99.90
22706;DHT22;11520;51.198;4.468;2023-04-24T09:10:44;13.00;99.90
22706;DHT22;11520;51.198;4.468;2023-04-24T09:13:10;12.80;99.90
22706;DHT22;11520;51.198;4.468;2023-04-24T09:15:37;12.80;99.90
22706;DHT22;11520;51.198;4.468;2023-04-24T09:18:04;12.80;99.90
22706;DHT22;11520;51.198;4.468;2023-04-24T09:20:30;12.60;99.90
22706;DHT22;11520;51.198;4.468;2023-04-24T09:22:57;12.40;99.90
22706;DHT22;11520;51.198;4.468;2023-04-24T09:25:33;12.50;99.90
22706;DHT22;11520;51.198;4.468;2023-04-24T09:28:03;12.60;99.90
22706;DHT22;11520;51.198;4.468;2023-04-24T09:30:29;12.70;99.90
22706;DHT22;11520;51.198;4.468;2023-04-24T09:33:12;12.60;99.90
22706;DHT22;11520;51.198;4.468;2023-04-24T09:35:49;12.20;99.90
22706;DHT22;11520;51.198;4.468;2023-04-24T09:38:15;11.80;99.90
22706;DHT22;11520;51.198;4.468;2023-04-24T09:40:41;11.60;99.90
22706;DHT22;11520;51.198;4.468;2023-04-24T09:43:10;11.30;99.90
22706;DHT22;11520;51.198;4.468;2023-04-24T09:45:38;11.40;99.90
22706;DHT22;11520;51.198;4.468;2023-04-24T09:48:04;11.60;99.90
22706;DHT22;11520;51.198;4.468;2023-04-24T09:50:32;13.00;99.90
22706;DHT22;11520;51.198;4.468;2023-04-24T09:53:02;14.70;99.90
22706;DHT22;11520;51.198;4.468;2023-04-24T09:55:29;15.20;99.90
22706;DHT22;11520;51.198;4.468;2023-04-24T09:57:59;15.30;99.90
22706;DHT22;11520;51.198;4.468;2023-04-24T10:00:33;15.00;99.90
22706;DHT22;11520;51.198;4.468;2023-04-24T10:03:01;14.80;99.90
22706;DHT22;11520;51.198;4.468;2023-04-24T10:08:02;14.90;99.90
22706;DHT22;11520;51.198;4.468;2023-04-24T10:10:31;15.40;99.90
22706;DHT22;11520;51.198;4.468;2023-04-24T10:12:56;16.90;99.90
22706;DHT22;11520;51.198;4.468;2023-04-24T10:15:22;16.40;99.90
22706;DHT22;11520;51.198;4.468;2023-04-24T10:17:49;15.90;99.90
22706;DHT22;11520;51.198;4.468;2023-04-24T10:20:25;15.90;99.90
22706;DHT22;11520;51.198;4.468;2023-04-24T10:22:52;15.50;99.90
22706;DHT22;11520;51.198;4.468;2023-04-24T10:25:20;15.00;99.90
22706;DHT22;11520;51.198;4.468;2023-04-24T10:27:48;14.70;99.90
22706;DHT22;11520;51.198;4.468;2023-04-24T10:30:14;14.20;99.90
22706;DHT22;11520;51.198;4.468;2023-04-24T10:32:40;14.00;99.90
22706;DHT22;11520;51.198;4.468;2023-04-24T10:35:07;13.70;99.90
22706;DHT22;11520;51.198;4.468;2023-04-24T10:37:39;13.40;99.90
22706;DHT22;11520;51.198;4.468;2023-04-24T10:40:06;12.80;99.90
22706;DHT22;11520;51.198;4.468;2023-04-24T10:42:33;12.30;99.90
22706;DHT22;11520;51.198;4.468;2023-04-24T10:44:59;12.40;99.90
22706;DHT22;11520;51.198;4.468;2023-04-24T10:47:30;12.60;99.90
22706;DHT22;11520;51.198;4.468;2023-04-24T10:50:09;13.50;99.90
22706;DHT22;11520;51.198;4.468;2023-04-24T10:52:48;14.00;99.90
22706;DHT22;11520;51.198;4.468;2023-04-24T10:55:16;13.90;99.90
22706;DHT22;11520;51.198;4.468;2023-04-24T10:58:05;14.20;99.90
22706;DHT22;11520;51.198;4.468;2023-04-24T11:00:31;13.90;99.90
22706;DHT22;11520;51.198;4.468;2023-04-24T11:02:57;13.90;99.90
22706;DHT22;11520;51.198;4.468;2023-04-24T11:05:49;14.10;99.90
22706;DHT22;11520;51.198;4.468;2023-04-24T11:08:22;14.70;99.90
22706;DHT22;11520;51.198;4.468;2023-04-24T11:13:24;15.00;99.90
22706;DHT22;11520;51.198;4.468;2023-04-24T11:16:20;14.90;99.90
22706;DHT22;11520;51.198;4.468;2023-04-24T11:18:51;14.90;99.90
22706;DHT22;11520;51.198;4.468;2023-04-24T11:21:20;14.80;99.90
22706;DHT22;11520;51.198;4.468;2023-04-24T11:26:24;14.90;99.90
22706;DHT22;11520;51.198;4.468;2023-04-24T11:29:06;15.20;99.90
22706;DHT22;11520;51.198;4.468;2023-04-24T11:31:37;14.90;99.90
22706;DHT22;11520;51.198;4.468;2023-04-24T11:36:33;14.80;99.90
22706;DHT22;11520;51.198;4.468;2023-04-24T11:38:59;14.20;99.90
22706;DHT22;11520;51.198;4.468;2023-04-24T11:41:26;14.00;99.90
22706;DHT22;11520;51.198;4.468;2023-04-24T11:43:53;14.30;99.90
22706;DHT22;11520;51.198;4.468;2023-04-24T11:46:27;14.30;99.90
22706;DHT22;11520;51.198;4.468;2023-04-24T11:48:53;14.20;99.90
22706;DHT22;11520;51.198;4.468;2023-04-24T11:51:18;14.00;99.90
22706;DHT22;11520;51.198;4.468;2023-04-24T11:53:44;13.80;99.90
22706;DHT22;11520;51.198;4.468;2023-04-24T11:56:10;13.60;99.90
22706;DHT22;11520;51.198;4.468;2023-04-24T11:58:39;13.80;99.90
22706;DHT22;11520;51.198;4.468;2023-04-24T12:01:05;13.90;99.90
22706;DHT22;11520;51.198;4.468;2023-04-24T12:03:31;13.60;99.90
22706;DHT22;11520;51.198;4.468;2023-04-24T12:06:10;13.80;99.90
22706;DHT22;11520;51.198;4.468;2023-04-24T12:08:37;14.00;99.90
22706;DHT22;11520;51.198;4.468;2023-04-24T12:11:04;13.70;99.90
22706;DHT22;11520;51.198;4.468;2023-04-24T12:13:30;13.70;99.90
22706;DHT22;11520;51.198;4.468;2023-04-24T12:15:59;13.70;99.90
22706;DHT22;11520;51.198;4.468;2023-04-24T12:18:25;13.40;99.90
22706;DHT22;11520;51.198;4.468;2023-04-24T12:20:51;13.20;99.90
22706;DHT22;11520;51.198;4.468;2023-04-24T12:23:27;13.00;99.90
22706;DHT22;11520;51.198;4.468;2023-04-24T12:26:03;12.80;99.90
22706;DHT22;11520;51.198;4.468;2023-04-24T12:28:35;12.80;99.90
22706;DHT22;11520;51.198;4.468;2023-04-24T12:31:01;12.90;99.90
22706;DHT22;11520;51.198;4.468;2023-04-24T12:33:27;13.20;99.90
22706;DHT22;11520;51.198;4.468;2023-04-24T12:35:54;13.60;99.90
22706;DHT22;11520;51.198;4.468;2023-04-24T12:38:25;14.10;99.90
22706;DHT22;11520;51.198;4.468;2023-04-24T12:41:08;13.80;99.90
22706;DHT22;11520;51.198;4.468;2023-04-24T12:43:34;13.60;99.90
22706;DHT22;11520;51.198;4.468;2023-04-24T12:46:00;13.90;99.90
22706;DHT22;11520;51.198;4.468;2023-04-24T12:48:27;14.20;99.90
22706;DHT22;11520;51.198;4.468;2023-04-24T12:50:52;14.30;99.90
22706;DHT22;11520;51.198;4.468;2023-04-24T12:53:18;14.40;99.90
22706;DHT22;11520;51.198;4.468;2023-04-24T12:55:44;14.40;99.90
22706;DHT22;11520;51.198;4.468;2023-04-24T12:58:10;14.10;99.90
22706;DHT22;11520;51.198;4.468;2023-04-24T13:00:36;14.00;99.90
22706;DHT22;11520;51.198;4.468;2023-04-24T13:03:02;14.20;99.90
22706;DHT22;11520;51.198;4.468;2023-04-24T13:05:28;14.30;99.90
22706;DHT22;11520;51.198;4.468;2023-04-24T13:07:54;14.70;99.90
22706;DHT22;11520;51.198;4.468;2023-04-24T13:10:19;14.60;99.90
22706;DHT22;11520;51.198;4.468;2023-04-24T13:12:45;14.60;99.90
22706;DHT22;11520;51.198;4.468;2023-04-24T13:15:11;14.60;99.90
22706;DHT22;11520;51.198;4.468;2023-04-24T13:17:37;14.50;99.90
22706;DHT22;11520;51.198;4.468;2023-04-24T13:20:03;14.30;99.90
22706;DHT22;11520;51.198;4.468;2023-04-24T13:22:29;14.40;99.90
22706;DHT22;11520;51.198;4.468;2023-04-24T13:24:55;14.50;99.90
22706;DHT22;11520;51.198;4.468;2023-04-24T13:27:21;14.50;99.90
22706;DHT22;11520;51.198;4.468;2023-04-24T13:29:47;14.50;99.90
22706;DHT22;11520;51.198;4.468;2023-04-24T13:32:12;14.60;99.90
22706;DHT22;11520;51.198;4.468;2023-04-24T13:34:38;14.80;99.90
22706;DHT22;11520;51.198;4.468;2023-04-24T13:37:04;14.90;99.90
22706;DHT22;11520;51.198;4.468;2023-04-24T13:39:30;15.20;99.90
22706;DHT22;11520;51.198;4.468;2023-04-24T13:41:57;15.00;99.90
22706;DHT22;11520;51.198;4.468;2023-04-24T13:44:23;15.00;99.90
22706;DHT22;11520;51.198;4.468;2023-04-24T13:46:52;15.00;99.90
22706;DHT22;11520;51.198;4.468;2023-04-24T13:49:19;15.10;99.90
22706;DHT22;11520;51.198;4.468;2023-04-24T13:51:45;15.40;99.90
22706;DHT22;11520;51.198;4.468;2023-04-24T13:54:11;15.40;99.90
22706;DHT22;11520;51.198;4.468;2023-04-24T13:56:37;14.60;99.90
22706;DHT22;11520;51.198;4.468;2023-04-24T13:59:03;14.60;99.90
22706;DHT22;11520;51.198;4.468;2023-04-24T14:01:29;14.70;99.90
22706;DHT22;11520;51.198;4.468;2023-04-24T14:03:55;14.70;99.90
22706;DHT22;11520;51.198;4.468;2023-04-24T14:06:21;14.50;99.90
22706;DHT22;11520;51.198;4.468;2023-04-24T14:08:47;14.40;99.90
22706;DHT22;11520;51.198;4.468;2023-04-24T14:11:13;14.10;99.90
22706;DHT22;11520;51.198;4.468;2023-04-24T14:13:41;13.90;99.90
22706;DHT22;11520;51.198;4.468;2023-04-24T14:16:07;13.60;99.90
22706;DHT22;11520;51.198;4.468;2023-04-24T14:18:33;13.50;99.90
22706;DHT22;11520;51.198;4.468;2023-04-24T14:20:59;13.30;99.90
22706;DHT22;11520;51.198;4.468;2023-04-24T14:23:26;13.30;99.90
22706;DHT22;11520;51.198;4.468;2023-04-24T14:25:53;13.30;99.90
22706;DHT22;11520;51.198;4.468;2023-04-24T14:28:20;13.50;99.90
22706;DHT22;11520;51.198;4.468;2023-04-24T14:30:46;13.70;99.90
22706;DHT22;11520;51.198;4.468;2023-04-24T14:33:12;13.80;99.90
22706;DHT22;11520;51.198;4.468;2023-04-24T14:35:38;14.00;99.90
22706;DHT22;11520;51.198;4.468;2023-04-24T14:38:05;14.10;99.90
22706;DHT22;11520;51.198;4.468;2023-04-24T14:40:30;14.10;99.90
22706;DHT22;11520;51.198;4.468;2023-04-24T14:42:58;14.30;99.90
22706;DHT22;11520;51.198;4.468;2023-04-24T14:45:24;14.40;99.90
22706;DHT22;11520;51.198;4.468;2023-04-24T14:47:51;14.50;99.90
22706;DHT22;11520;51.198;4.468;2023-04-24T14:50:16;14.50;99.90
22706;DHT22;11520;51.198;4.468;2023-04-24T14:52:42;14.50;99.90
22706;DHT22;11520;51.198;4.468;2023-04-24T14:55:08;14.50;99.90
22706;DHT22;11520;51.198;4.468;2023-04-24T14:57:34;14.60;99.90
22706;DHT22;11520;51.198;4.468;2023-04-24T15:00:02;14.50;99.90
22706;DHT22;11520;51.198;4.468;2023-04-24T15:02:28;14.30;99.90
22706;DHT22;11520;51.198;4.468;2023-04-24T15:05:07;14.00;99.90
22706;DHT22;11520;51.198;4.468;2023-04-24T15:07:33;14.00;99.90
22706;DHT22;11520;51.198;4.468;2023-04-24T15:10:01;13.60;99.90
22706;DHT22;11520;51.198;4.468;2023-04-24T15:12:27;13.20;99.90
22706;DHT22;11520;51.198;4.468;2023-04-24T15:14:54;13.30;99.90
22706;DHT22;11520;51.198;4.468;2023-04-24T15:17:19;13.40;99.90
22706;DHT22;11520;51.198;4.468;2023-04-24T15:19:45;13.50;99.90
22706;DHT22;11520;51.198;4.468;2023-04-24T15:22:11;13.50;99.90
22706;DHT22;11520;51.198;4.468;2023-04-24T15:24:36;13.50;99.90
22706;DHT22;11520;51.198;4.468;2023-04-24T15:27:02;13.20;99.90
22706;DHT22;11520;51.198;4.468;2023-04-24T15:29:29;13.40;99.90
22706;DHT22;11520;51.198;4.468;2023-04-24T15:31:54;13.60;99.90
22706;DHT22;11520;51.198;4.468;2023-04-24T15:34:20;14.00;99.90
22706;DHT22;11520;51.198;4.468;2023-04-24T15:36:46;14.10;99.90
22706;DHT22;11520;51.198;4.468;2023-04-24T15:39:12;14.10;99.90
22706;DHT22;11520;51.198;4.468;2023-04-24T15:41:58;13.90;99.90